createdAt,value
2019-01-08T00:00:58.818Z,390.43
2019-01-08T00:03:27.556Z,398.30
2019-01-08T00:05:56.011Z,378.70
2019-01-08T00:08:24.678Z,237.10
2019-01-08T00:10:53.495Z,184.70
2019-01-08T00:13:22.392Z,188.43
2019-01-08T00:15:51.098Z,161.73
2019-01-08T00:18:19.858Z,145.97
2019-01-08T00:20:48.575Z,139.90
2019-01-08T00:23:17.120Z,125.87
2019-01-08T00:25:45.520Z,132.63
2019-01-08T00:28:14.249Z,135.53
2019-01-08T00:30:42.764Z,129.77
2019-01-08T00:33:11.167Z,104.73
2019-01-08T00:35:39.858Z,93.80
2019-01-08T00:38:08.538Z,83.13
2019-01-08T00:40:37.333Z,82.50
2019-01-08T00:43:05.780Z,106.23
2019-01-08T00:45:34.550Z,103.97
2019-01-08T00:48:02.949Z,78.47
2019-01-08T00:50:32.356Z,96.87
2019-01-08T00:53:00.746Z,100.17
2019-01-08T00:55:29.312Z,85.43
2019-01-08T00:57:57.950Z,90.83
2019-01-08T01:00:26.341Z,92.17
2019-01-08T01:02:54.735Z,84.13
2019-01-08T01:05:23.230Z,92.23
2019-01-08T01:07:51.623Z,94.37
2019-01-08T01:10:20.186Z,99.40
2019-01-08T01:12:48.765Z,143.50
2019-01-08T01:15:17.347Z,139.83
2019-01-08T01:17:46.196Z,101.47
2019-01-08T01:20:14.728Z,96.03
2019-01-08T01:22:43.180Z,63.73
2019-01-08T01:25:11.920Z,63.33
2019-01-08T01:27:40.632Z,72.37
2019-01-08T01:30:09.038Z,65.33
2019-01-08T01:32:37.699Z,62.93
2019-01-08T01:35:06.411Z,58.30
2019-01-08T01:37:35.075Z,53.90
2019-01-08T01:40:05.215Z,61.23
2019-01-08T01:42:33.643Z,60.53
2019-01-08T01:45:02.138Z,57.87
2019-01-08T01:47:30.544Z,54.10
2019-01-08T01:49:59.652Z,51.47
2019-01-08T01:52:29.440Z,56.60
2019-01-08T01:54:57.965Z,47.67
2019-01-08T01:57:26.905Z,62.37
2019-01-08T01:59:55.816Z,49.17
2019-01-08T02:02:24.589Z,51.03
2019-01-08T02:04:54.770Z,52.33
2019-01-08T02:07:23.157Z,49.63
2019-01-08T02:09:51.919Z,54.03
2019-01-08T02:12:20.428Z,55.83
2019-01-08T02:14:48.996Z,58.77
2019-01-08T02:17:17.383Z,58.73
2019-01-08T02:19:46.095Z,59.10
2019-01-08T02:22:14.699Z,44.87
2019-01-08T02:24:43.277Z,43.57
2019-01-08T02:27:11.704Z,40.30
2019-01-08T02:29:40.099Z,42.17
2019-01-08T02:32:08.487Z,78.57
2019-01-08T02:34:37.055Z,63.63
2019-01-08T02:37:05.848Z,45.00
2019-01-08T02:39:34.464Z,46.40
2019-01-08T02:42:03.162Z,45.87
2019-01-08T02:44:32.534Z,42.83
2019-01-08T02:47:01.337Z,51.77
2019-01-08T02:49:30.279Z,47.97
2019-01-08T02:51:59.119Z,51.07
2019-01-08T02:54:28.678Z,60.93
2019-01-08T02:56:57.140Z,67.27
2019-01-08T02:59:25.547Z,58.53
2019-01-08T03:01:53.932Z,38.23
2019-01-08T03:04:22.947Z,38.00
2019-01-08T03:06:51.616Z,26.30
2019-01-08T03:09:20.122Z,19.90
2019-01-08T03:11:48.845Z,22.23
2019-01-08T03:14:17.411Z,19.50
2019-01-08T03:16:45.897Z,18.20
2019-01-08T03:19:14.378Z,16.77
2019-01-08T03:21:43.423Z,19.03
2019-01-08T03:24:12.255Z,15.73
2019-01-08T03:26:40.954Z,17.00
2019-01-08T03:29:09.617Z,20.13
2019-01-08T03:31:38.284Z,19.17
2019-01-08T03:34:06.963Z,22.97
2019-01-08T03:36:35.897Z,22.43
2019-01-08T03:39:05.293Z,20.20
2019-01-08T03:41:33.734Z,23.17
2019-01-08T03:44:02.225Z,24.07
2019-01-08T03:46:30.613Z,20.93
2019-01-08T03:48:59.055Z,16.07
2019-01-08T03:51:27.527Z,21.40
2019-01-08T03:53:55.942Z,24.00
2019-01-08T03:56:25.144Z,22.90
2019-01-08T03:58:53.827Z,16.50
2019-01-08T04:01:22.473Z,21.07
2019-01-08T04:03:51.067Z,22.73
2019-01-08T04:06:20.046Z,18.40
2019-01-08T04:08:48.513Z,21.17
2019-01-08T04:11:17.432Z,25.93
2019-01-08T04:13:46.388Z,19.20
2019-01-08T04:16:14.771Z,14.30
2019-01-08T04:18:43.200Z,14.63
2019-01-08T04:21:11.586Z,14.90
2019-01-08T04:23:39.979Z,15.13
2019-01-08T04:26:08.416Z,23.43
2019-01-08T04:28:37.167Z,22.80
2019-01-08T04:31:05.823Z,17.43
2019-01-08T04:33:34.323Z,19.47
2019-01-08T04:36:02.990Z,29.10
2019-01-08T04:38:31.507Z,30.73
2019-01-08T04:41:00.008Z,36.83
2019-01-08T04:43:28.530Z,48.50
2019-01-08T04:45:57.099Z,15.13
2019-01-08T04:48:25.688Z,22.27
2019-01-08T04:50:54.347Z,18.93
2019-01-08T04:53:23.325Z,16.00
2019-01-08T04:55:51.995Z,22.70
2019-01-08T04:58:21.571Z,17.83
2019-01-08T05:00:50.235Z,27.50
2019-01-08T05:03:18.885Z,36.57
2019-01-08T05:05:47.464Z,54.73
2019-01-08T05:08:16.520Z,72.70
2019-01-08T05:10:45.227Z,47.97
2019-01-08T05:13:13.893Z,40.77
2019-01-08T05:15:42.517Z,42.30
2019-01-08T05:18:11.202Z,33.87
2019-01-08T05:20:40.347Z,25.90
2019-01-08T05:23:08.906Z,26.37
2019-01-08T05:25:37.332Z,38.00
2019-01-08T05:28:05.728Z,37.87
2019-01-08T05:30:34.411Z,41.00
2019-01-08T05:33:03.037Z,50.13
2019-01-08T05:35:31.575Z,49.00
2019-01-08T05:38:00.196Z,52.70
2019-01-08T05:40:29.360Z,54.40
2019-01-08T05:42:58.351Z,74.40
2019-01-08T05:45:27.020Z,79.57
2019-01-08T05:47:55.734Z,78.93
2019-01-08T05:50:24.127Z,35.43
2019-01-08T05:52:52.712Z,88.70
2019-01-08T05:55:21.143Z,93.60
2019-01-08T05:57:49.707Z,86.83
2019-01-08T06:00:19.612Z,99.00
2019-01-08T06:02:48.057Z,99.47
2019-01-08T06:05:16.945Z,114.07
2019-01-08T06:07:45.607Z,112.83
2019-01-08T06:10:14.596Z,130.83
2019-01-08T06:12:43.040Z,153.10
2019-01-08T06:15:11.575Z,131.33
2019-01-08T06:17:40.755Z,163.13
2019-01-08T06:20:09.423Z,163.50
2019-01-08T06:22:38.227Z,154.83
2019-01-08T06:25:06.827Z,148.53
2019-01-08T06:27:35.227Z,81.27
2019-01-08T06:30:03.690Z,47.00
2019-01-08T06:32:32.207Z,181.93
2019-01-08T06:35:00.864Z,215.63
2019-01-08T06:37:29.403Z,251.07
2019-01-08T06:39:57.858Z,245.17
2019-01-08T06:42:26.670Z,233.30
2019-01-08T06:44:55.608Z,224.70
2019-01-08T06:47:24.203Z,234.30
2019-01-08T06:49:54.532Z,241.00
2019-01-08T06:52:26.211Z,233.13
2019-01-08T06:54:58.618Z,196.57
2019-01-08T06:57:27.494Z,184.87
2019-01-08T07:00:00.510Z,164.93
2019-01-08T07:02:33.501Z,109.23
2019-01-08T07:05:03.340Z,54.57
2019-01-08T07:07:31.895Z,32.83
2019-01-08T07:10:00.379Z,23.47
2019-01-08T07:12:29.012Z,43.57
2019-01-08T07:14:57.453Z,20.23
2019-01-08T07:17:25.842Z,17.20
2019-01-08T07:19:54.763Z,17.97
2019-01-08T07:22:23.197Z,16.10
2019-01-08T07:24:52.733Z,14.83
2019-01-08T07:27:21.121Z,9.83
2019-01-08T07:29:49.827Z,14.67
2019-01-08T07:32:18.487Z,17.27
2019-01-08T07:34:47.241Z,14.20
2019-01-08T07:37:16.166Z,15.37
2019-01-08T07:39:44.552Z,13.60
2019-01-08T07:42:13.188Z,15.00
2019-01-08T07:44:42.161Z,14.77
2019-01-08T07:47:10.714Z,13.27
2019-01-08T07:49:39.287Z,16.00
2019-01-08T07:52:07.928Z,20.47
2019-01-08T07:54:36.924Z,18.20
2019-01-08T07:57:05.562Z,15.77
2019-01-08T07:59:33.989Z,20.73
2019-01-08T08:02:02.943Z,20.33
2019-01-08T08:04:35.859Z,18.50
2019-01-08T08:07:05.531Z,18.77
2019-01-08T08:09:35.128Z,20.37
2019-01-08T08:12:03.530Z,20.07
2019-01-08T08:14:32.263Z,21.07
2019-01-08T08:17:01.931Z,19.10
2019-01-08T08:19:31.113Z,18.27
2019-01-08T08:21:59.855Z,19.57
2019-01-08T08:24:29.019Z,20.33
2019-01-08T08:26:57.801Z,22.73
2019-01-08T08:29:27.477Z,30.17
2019-01-08T08:31:55.862Z,64.23
2019-01-08T08:34:24.552Z,60.90
2019-01-08T08:36:53.320Z,47.13
2019-01-08T08:39:22.042Z,47.60
2019-01-08T08:41:50.591Z,67.67
2019-01-08T08:44:21.428Z,69.43
2019-01-08T08:46:49.842Z,45.63
2019-01-08T08:49:19.027Z,21.70
2019-01-08T08:51:47.531Z,19.80
2019-01-08T08:54:16.290Z,31.57
2019-01-08T08:56:44.989Z,37.03
2019-01-08T08:59:13.531Z,27.40
2019-01-08T09:01:42.259Z,32.20
2019-01-08T09:04:11.045Z,52.80
2019-01-08T09:06:40.488Z,28.50
2019-01-08T09:09:08.883Z,22.47
2019-01-08T09:11:37.381Z,29.13
2019-01-08T09:14:06.214Z,27.10
2019-01-08T09:16:35.005Z,23.50
2019-01-08T09:19:03.439Z,26.47
2019-01-08T09:21:31.940Z,24.53
2019-01-08T09:24:00.380Z,19.57
2019-01-08T09:26:28.783Z,51.13
2019-01-08T09:28:57.420Z,53.97
2019-01-08T09:31:25.959Z,30.43
2019-01-08T09:33:54.424Z,18.93
2019-01-08T09:36:22.885Z,24.80
2019-01-08T09:38:51.894Z,33.20
2019-01-08T09:41:20.377Z,18.57
2019-01-08T09:43:48.918Z,16.73
2019-01-08T09:46:17.325Z,20.07
2019-01-08T09:48:45.870Z,22.27
2019-01-08T09:51:14.571Z,24.73
2019-01-08T09:53:43.066Z,26.87
2019-01-08T09:56:11.629Z,25.60
2019-01-08T09:58:40.467Z,17.43
2019-01-08T10:01:08.779Z,13.60
2019-01-08T10:03:38.041Z,20.13
2019-01-08T10:06:11.575Z,13.70
2019-01-08T10:08:42.149Z,20.27
2019-01-08T10:11:10.862Z,18.50
2019-01-08T10:13:40.793Z,17.70
2019-01-08T10:16:09.221Z,16.47
2019-01-08T10:18:37.819Z,19.50
2019-01-08T10:21:06.411Z,21.87
2019-01-08T10:23:35.051Z,19.53
2019-01-08T10:26:03.558Z,15.20
2019-01-08T10:28:34.115Z,15.47
2019-01-08T10:31:06.073Z,19.13
2019-01-08T10:33:37.853Z,19.33
2019-01-08T10:36:06.519Z,26.00
2019-01-08T10:38:35.431Z,31.27
2019-01-08T10:41:07.539Z,30.87
2019-01-08T10:43:37.892Z,17.93
2019-01-08T10:46:06.569Z,28.80
2019-01-08T10:48:36.057Z,17.60
2019-01-08T10:51:04.687Z,16.30
2019-01-08T10:53:36.897Z,17.93
2019-01-08T10:56:05.335Z,18.03
2019-01-08T10:58:34.192Z,194.07
2019-01-08T11:01:02.742Z,72.30
2019-01-08T11:03:31.200Z,85.10
2019-01-08T11:06:00.294Z,25.37
2019-01-08T11:08:28.803Z,20.17
2019-01-08T11:10:59.019Z,22.07
2019-01-08T11:13:28.826Z,18.90
2019-01-08T11:15:58.372Z,15.77
2019-01-08T11:18:27.456Z,14.47
2019-01-08T11:20:56.019Z,17.33
2019-01-08T11:23:27.916Z,19.60
2019-01-08T11:25:57.581Z,16.10
2019-01-08T11:28:26.075Z,15.30
2019-01-08T11:30:55.653Z,14.40
2019-01-08T11:33:24.125Z,16.40
2019-01-08T11:35:56.131Z,14.93
2019-01-08T11:38:25.734Z,15.60
2019-01-08T11:40:55.778Z,15.47
2019-01-08T11:43:24.467Z,17.80
2019-01-08T11:45:53.361Z,20.00
2019-01-08T11:48:22.614Z,15.37
2019-01-08T11:50:51.822Z,15.10
2019-01-08T11:53:20.711Z,18.63
2019-01-08T11:56:00.109Z,28.73
2019-01-08T11:58:28.945Z,16.87
2019-01-08T12:00:59.322Z,16.40
2019-01-08T12:03:28.016Z,30.80
2019-01-08T12:05:57.435Z,14.17
2019-01-08T12:08:25.949Z,14.00
2019-01-08T12:10:58.050Z,16.33
2019-01-08T12:13:29.912Z,10.07
2019-01-08T12:15:58.081Z,12.27
2019-01-08T12:18:26.563Z,14.93
2019-01-08T12:20:56.692Z,12.17
2019-01-08T12:23:25.375Z,13.03
2019-01-08T12:25:56.954Z,32.30
2019-01-08T12:28:25.286Z,41.87
2019-01-08T12:30:53.817Z,22.90
2019-01-08T12:33:22.414Z,21.60
2019-01-08T12:35:51.000Z,20.30
2019-01-08T12:38:19.732Z,13.20
2019-01-08T12:40:48.292Z,11.10
2019-01-08T12:43:17.259Z,18.73
2019-01-08T12:45:45.820Z,12.00
2019-01-08T12:48:18.286Z,15.40
2019-01-08T12:50:46.735Z,11.80
2019-01-08T12:53:15.976Z,14.03
2019-01-08T12:55:44.472Z,20.60
2019-01-08T12:58:17.686Z,29.93
2019-01-08T13:00:47.327Z,34.13
2019-01-08T13:03:16.032Z,24.13
2019-01-08T13:05:46.155Z,18.60
2019-01-08T13:08:15.043Z,17.87
2019-01-08T13:10:43.430Z,43.03
2019-01-08T13:13:11.824Z,18.30
2019-01-08T13:15:43.257Z,18.73
2019-01-08T13:18:13.181Z,23.93
2019-01-08T13:20:41.618Z,78.07
2019-01-08T13:23:10.052Z,19.90
2019-01-08T13:25:38.444Z,177.00
2019-01-08T13:28:07.107Z,29.93
2019-01-08T13:30:36.160Z,23.70
2019-01-08T13:33:04.556Z,43.37
2019-01-08T13:35:33.167Z,17.50
2019-01-08T13:38:01.872Z,12.93
2019-01-08T13:40:30.255Z,43.33
2019-01-08T13:42:58.654Z,29.87
2019-01-08T13:45:27.277Z,20.03
2019-01-08T13:47:55.667Z,81.00
2019-01-08T13:50:24.211Z,49.97
2019-01-08T13:52:55.696Z,60.13
2019-01-08T13:55:26.373Z,44.73
2019-01-08T13:57:54.934Z,86.27
2019-01-08T14:00:31.770Z,31.13
2019-01-08T14:03:04.377Z,70.63
2019-01-08T14:05:37.331Z,27.90
2019-01-08T14:08:10.845Z,18.40
2019-01-08T14:10:39.788Z,20.53
2019-01-08T14:13:10.947Z,17.43
2019-01-08T14:15:51.107Z,58.93
2019-01-08T14:18:25.557Z,14.33
2019-01-08T14:21:11.218Z,10.63
2019-01-08T14:23:43.573Z,12.10
2019-01-08T14:26:13.999Z,21.17
2019-01-08T14:28:46.328Z,16.50
2019-01-08T14:31:14.919Z,11.47
2019-01-08T14:33:43.310Z,13.00
2019-01-08T14:36:12.045Z,12.97
2019-01-08T14:38:44.252Z,15.23
2019-01-08T14:41:12.736Z,10.37
2019-01-08T14:43:41.170Z,15.53
2019-01-08T14:46:16.104Z,18.80
2019-01-08T14:48:45.443Z,25.60
2019-01-08T14:51:22.480Z,26.93
2019-01-08T14:53:51.172Z,21.10
2019-01-08T14:56:23.504Z,18.07
2019-01-08T14:59:08.780Z,18.03
2019-01-08T15:01:37.872Z,26.33
2019-01-08T15:04:10.148Z,15.17
2019-01-08T15:06:38.778Z,15.30
2019-01-08T15:09:07.759Z,16.43
2019-01-08T15:11:37.394Z,24.73
2019-01-08T15:14:07.972Z,29.73
2019-01-08T15:16:37.439Z,23.60
2019-01-08T15:19:08.701Z,55.53
2019-01-08T15:21:37.794Z,43.13
2019-01-08T15:24:08.769Z,37.50
2019-01-08T15:26:39.586Z,29.93
2019-01-08T15:29:08.992Z,27.13
2019-01-08T15:31:39.038Z,31.50
2019-01-08T15:34:11.644Z,59.37
2019-01-08T15:36:40.142Z,32.33
2019-01-08T15:39:09.571Z,31.20
2019-01-08T15:41:45.521Z,28.57
2019-01-08T15:44:15.459Z,74.93
2019-01-08T15:46:44.122Z,61.07
2019-01-08T15:49:12.549Z,31.53
2019-01-08T15:51:40.946Z,38.20
2019-01-08T15:54:09.409Z,33.37
2019-01-08T15:56:40.163Z,38.63
2019-01-08T15:59:09.278Z,52.67
2019-01-08T16:01:40.863Z,55.67
2019-01-08T16:04:12.550Z,50.60
2019-01-08T16:06:44.666Z,31.60
2019-01-08T16:09:13.006Z,35.53
2019-01-08T16:11:41.464Z,34.53
2019-01-08T16:14:09.989Z,39.23
2019-01-08T16:16:39.438Z,43.30
2019-01-08T16:19:15.846Z,42.90
2019-01-08T16:21:47.732Z,45.57
2019-01-08T16:24:16.207Z,47.10
2019-01-08T16:26:44.679Z,42.90
2019-01-08T16:29:14.887Z,42.53
2019-01-08T16:31:43.570Z,44.17
2019-01-08T16:34:14.164Z,48.27
2019-01-08T16:36:43.108Z,39.07
2019-01-08T16:39:11.712Z,36.33
2019-01-08T16:41:43.544Z,38.73
2019-01-08T16:44:21.322Z,44.27
2019-01-08T16:47:03.024Z,38.07
2019-01-08T16:49:36.796Z,35.27
2019-01-08T16:52:11.728Z,34.57
2019-01-08T16:54:43.138Z,35.53
2019-01-08T16:57:16.687Z,44.40
2019-01-08T16:59:48.397Z,41.30
2019-01-08T17:02:17.020Z,43.80
2019-01-08T17:04:46.469Z,43.23
2019-01-08T17:07:19.622Z,36.57
2019-01-08T17:09:50.496Z,33.20
2019-01-08T17:24:46.022Z,40.17
2019-01-08T17:27:17.353Z,36.53
2019-01-08T17:29:46.335Z,23.63
2019-01-08T17:32:18.564Z,24.77
2019-01-08T17:48:10.543Z,29.87
2019-01-08T17:50:40.967Z,30.93
2019-01-08T17:53:11.716Z,32.03
2019-01-08T17:55:41.130Z,28.80
2019-01-08T17:58:35.525Z,30.43
2019-01-08T18:01:10.123Z,44.57
2019-01-08T18:03:42.905Z,19.10
2019-01-08T18:06:09.431Z,19.00
2019-01-08T18:08:38.315Z,18.40
2019-01-08T18:11:06.901Z,18.47
2019-01-08T18:13:37.197Z,35.33
2019-01-08T18:16:06.754Z,24.83
2019-01-08T18:18:36.030Z,19.73
2019-01-08T18:21:06.177Z,18.50
2019-01-08T18:23:38.373Z,20.50
2019-01-08T18:26:08.185Z,31.27
2019-01-08T18:28:38.066Z,31.43
2019-01-08T18:31:07.119Z,30.00
2019-01-08T18:33:36.111Z,45.27
2019-01-08T18:36:08.604Z,45.83
2019-01-08T18:38:41.233Z,35.50
2019-01-08T18:41:09.810Z,39.97
2019-01-08T18:43:38.538Z,54.97
2019-01-08T18:46:07.030Z,52.27
2019-01-08T18:48:39.029Z,39.63
2019-01-08T18:51:11.312Z,34.37
2019-01-08T18:53:43.879Z,29.47
2019-01-08T18:56:14.133Z,40.57
2019-01-08T18:58:43.092Z,27.73
2019-01-08T19:01:15.981Z,30.07
2019-01-08T19:03:47.078Z,43.67
2019-01-08T19:06:22.733Z,66.63
2019-01-08T19:09:29.080Z,39.27
2019-01-08T19:12:07.625Z,45.30
2019-01-08T19:14:37.411Z,38.87
2019-01-08T19:17:07.432Z,36.20
2019-01-08T19:19:38.779Z,36.40
2019-01-08T19:22:08.836Z,39.37
2019-01-08T19:24:42.702Z,33.90
2019-01-08T19:27:17.234Z,44.07
2019-01-08T19:29:46.809Z,37.97
2019-01-08T19:32:16.422Z,37.10
2019-01-08T19:34:50.774Z,37.37
2019-01-08T19:37:20.388Z,42.00
2019-01-08T19:39:51.702Z,47.93
2019-01-08T19:42:25.235Z,40.03
2019-01-08T19:44:55.025Z,41.73
2019-01-08T19:47:29.432Z,42.30
2019-01-08T19:50:00.332Z,37.37
2019-01-08T19:52:32.016Z,31.43
2019-01-08T19:55:05.628Z,33.50
2019-01-08T19:57:36.871Z,32.03
2019-01-08T20:00:10.003Z,35.17
2019-01-08T20:02:41.333Z,32.80
2019-01-08T20:05:11.727Z,37.50
2019-01-08T20:07:45.014Z,42.77
2019-01-08T20:10:14.204Z,39.23
2019-01-08T20:12:43.168Z,31.37
2019-01-08T20:15:11.665Z,26.80
2019-01-08T20:17:40.408Z,26.77
2019-01-08T20:20:09.439Z,25.20
2019-01-08T20:22:38.145Z,29.60
2019-01-08T20:25:06.834Z,27.40
2019-01-08T20:27:35.418Z,58.93
2019-01-08T20:30:07.186Z,41.07
2019-01-08T20:32:36.329Z,35.07
2019-01-08T20:35:05.065Z,34.80
2019-01-08T20:37:33.864Z,39.20
2019-01-08T20:40:02.681Z,86.37
2019-01-08T20:42:31.222Z,56.23
2019-01-08T20:44:59.759Z,84.77
2019-01-08T20:47:28.728Z,109.67
2019-01-08T20:49:57.348Z,217.40
2019-01-08T20:52:25.861Z,59.63
2019-01-08T20:54:54.478Z,30.63
2019-01-08T20:57:22.886Z,45.70
2019-01-08T20:59:51.352Z,57.00
2019-01-08T21:02:19.752Z,33.87
2019-01-08T21:04:48.207Z,50.83
2019-01-08T21:07:16.793Z,47.57
2019-01-08T21:09:45.287Z,55.67
2019-01-08T21:12:13.926Z,126.27
2019-01-08T21:14:42.440Z,159.33
2019-01-08T21:17:10.865Z,59.33
2019-01-08T21:19:39.565Z,182.53
2019-01-08T21:22:08.066Z,156.23
2019-01-08T21:24:36.556Z,131.60
2019-01-08T21:27:05.308Z,68.93
2019-01-08T21:29:33.811Z,40.43
2019-01-08T21:32:03.565Z,60.87
2019-01-08T21:34:32.585Z,49.13
2019-01-08T21:37:01.027Z,33.80
2019-01-08T21:39:30.108Z,31.10
2019-01-08T21:41:58.769Z,31.80
2019-01-08T21:44:27.659Z,44.17
2019-01-08T21:46:56.340Z,32.43
2019-01-08T21:49:25.289Z,30.03
2019-01-08T21:51:53.719Z,26.13
2019-01-08T21:54:22.337Z,26.77
2019-01-08T21:56:50.719Z,44.40
2019-01-08T21:59:19.625Z,32.83
2019-01-08T22:01:48.027Z,25.00
2019-01-08T22:04:17.079Z,28.23
2019-01-08T22:06:45.700Z,23.47
2019-01-08T22:09:14.242Z,22.50
2019-01-08T22:11:42.943Z,22.97
2019-01-08T22:14:11.464Z,33.10
2019-01-08T22:16:39.933Z,26.57
2019-01-08T22:19:08.326Z,27.33
2019-01-08T22:21:36.775Z,23.23
2019-01-08T22:24:05.245Z,25.30
2019-01-08T22:26:33.985Z,29.03
2019-01-08T22:29:02.424Z,30.13
2019-01-08T22:31:30.971Z,22.63
2019-01-08T22:34:00.716Z,36.20
2019-01-08T22:36:29.233Z,97.77
2019-01-08T22:38:58.191Z,74.17
2019-01-08T22:41:26.599Z,27.10
2019-01-08T22:43:55.077Z,22.07
2019-01-08T22:46:23.755Z,21.87
2019-01-08T22:48:52.497Z,23.83
2019-01-08T22:51:21.880Z,22.70
2019-01-08T22:53:50.744Z,22.30
2019-01-08T22:56:19.156Z,21.33
2019-01-08T22:58:47.855Z,23.53
2019-01-08T23:01:18.292Z,37.57
2019-01-08T23:03:47.038Z,20.00
2019-01-08T23:06:15.950Z,24.60
2019-01-08T23:08:44.508Z,58.23
2019-01-08T23:11:13.534Z,32.63
2019-01-08T23:13:41.968Z,38.53
2019-01-08T23:16:10.571Z,22.27
2019-01-08T23:18:39.171Z,22.80
2019-01-08T23:21:07.967Z,19.67
2019-01-08T23:23:36.375Z,18.23
2019-01-08T23:26:05.147Z,23.90
2019-01-08T23:28:33.612Z,23.80
2019-01-08T23:31:01.999Z,27.53
2019-01-08T23:33:30.392Z,25.03
2019-01-08T23:36:00.048Z,20.27
2019-01-08T23:38:28.501Z,20.07
2019-01-08T23:40:57.100Z,21.17
2019-01-08T23:43:25.693Z,35.07
2019-01-08T23:45:54.295Z,24.03
2019-01-08T23:48:22.863Z,23.87
2019-01-08T23:50:51.409Z,25.40
2019-01-08T23:53:29.152Z,23.23
2019-01-08T23:56:00.245Z,25.03
2019-01-08T23:58:28.904Z,19.67
